CheckWX is a tool to help pilots better visualize weather data.  It is not intended as a substitute for an official pre-flight weather briefing.

00:42:21 UTC

KNGP METAR
Airport
Corpus Christi, Texas, USA
Current

46 mins ago

KNGP 202356Z AUTO 16015KT 10SM CLR 25/16 A3000 RMK AO2 SLP157 T02500161 10283 20250 56018 $
Observed
Apr-20 @ 23:56 UTC
Wind
  • 160° at 15 KTS
Visibility
10 SM
Flight Rules
VFR
Cloud Levels
  • Clear skies
Temperature
25°C / 77°F
Dewpoint
16°C / 61°F
Humidity
57%
Altimeter
30" Hg
Pressure
1015.92 hPa
Previous

2 hours ago

KNGP 202256Z AUTO 16014KT 10SM CLR 27/16 A3000 RMK AO2 SLP160 T02670156 $
Observed
Apr-20 @ 22:56 UTC
Wind
  • 160° at 14 KTS
Visibility
10 SM
Flight Rules
VFR
Cloud Levels
  • Clear skies
Temperature
27°C / 81°F
Dewpoint
16°C / 61°F
Heat Index
28°C / 82°F
Humidity
51%
Altimeter
30" Hg
Pressure
1015.92 hPa
Previous

3 hours ago

KNGP 202156Z AUTO 15013KT 10SM CLR 27/15 A3003 RMK AO2 SLP168 T02720150 $
Observed
Apr-20 @ 21:56 UTC
Wind
  • 150° at 13 KTS
Visibility
10 SM
Flight Rules
VFR
Cloud Levels
  • Clear skies
Temperature
27°C / 81°F
Dewpoint
15°C / 59°F
Heat Index
27°C / 81°F
Humidity
48%
Altimeter
30.03" Hg
Pressure
1016.92 hPa